EWG86GR EDDS-LIMC
Flight info
| Callsign | EWG86GR |
|---|---|
| Flight time | N/A |
| Altitude | 24000 |
| Route | ROTWE7H/07 ROTWE Y126 TUBLO N850 NATOR DCT TRA DCT BASGO Z424 RIXUV |
| Aircraft | A21N/M-SDE2E3FGHIRWXY/LB1 |
Departure
| Time | N/A |
|---|---|
| Airport | Stuttgart Airport (EDDS) |
Arrival
| Time | 2026-04-30 18:02 |
|---|---|
| Airport | Milan Malpensa International Airport (LIMC) |
| Time | Latitude | Longitude | Altitude | Speed | Heading |
|---|---|---|---|---|---|
| 2026-04-30 17:39 | 45.48910 | 8.91298 | 24284 ft | 492 kts | 169° |
| 2026-04-30 17:41 | 45.22037 | 8.98510 | 24037 ft | 466 kts | 168° |
| 2026-04-30 17:42 | 45.15896 | 9.00130 | 23594 ft | 435 kts | 168° |
| 2026-04-30 17:42 | 45.07405 | 9.02270 | 22951 ft | 395 kts | 176° |
| 2026-04-30 17:43 | 45.02383 | 9.00362 | 22490 ft | 367 kts | 217° |
| 2026-04-30 17:44 | 44.97194 | 8.92732 | 21870 ft | 354 kts | 246° |
| 2026-04-30 17:44 | 44.97009 | 8.82949 | 21253 ft | 334 kts | 301° |
| 2026-04-30 17:46 | 45.05650 | 8.73422 | 20236 ft | 297 kts | 329° |
| 2026-04-30 17:47 | 45.12654 | 8.68386 | 19429 ft | 281 kts | 4° |
| 2026-04-30 17:48 | 45.17057 | 8.76246 | 18679 ft | 293 kts | 85° |
| 2026-04-30 17:48 | 45.17137 | 8.84919 | 18060 ft | 291 kts | 86° |
| 2026-04-30 17:49 | 45.15333 | 8.95685 | 17205 ft | 298 kts | 140° |
| 2026-04-30 17:50 | 45.07546 | 8.97622 | 16358 ft | 290 kts | 194° |
| 2026-04-30 17:51 | 45.03120 | 8.91393 | 15798 ft | 319 kts | 267° |
| 2026-04-30 17:52 | 45.06046 | 8.84964 | 14927 ft | 259 kts | 355° |
| 2026-04-30 17:53 | 45.14525 | 8.86103 | 12307 ft | 252 kts | 351° |
| 2026-04-30 17:54 | 45.21615 | 8.84205 | 9666 ft | 266 kts | 351° |
| 2026-04-30 17:55 | 45.28995 | 8.82171 | 6987 ft | 273 kts | 349° |
| 2026-04-30 17:56 | 45.35887 | 8.80780 | 5762 ft | 230 kts | 351° |
| 2026-04-30 17:57 | 45.40367 | 8.79589 | 5018 ft | 205 kts | 349° |
| 2026-04-30 17:58 | 45.44403 | 8.78481 | 4163 ft | 190 kts | 349° |
| 2026-04-30 17:59 | 45.49293 | 8.77136 | 3177 ft | 166 kts | 349° |
| 2026-04-30 18:00 | 45.53625 | 8.75943 | 2356 ft | 145 kts | 349° |
| 2026-04-30 18:00 | 45.56605 | 8.75125 | 1719 ft | 147 kts | 348° |
| 2026-04-30 18:01 | 45.58618 | 8.74563 | 1369 ft | 147 kts | 348° |
| 2026-04-30 18:02 | 45.61643 | 8.73729 | 791 ft | 148 kts | 349° |
| 2026-04-30 18:02 | 45.63534 | 8.73197 | 743 ft | 31 kts | 344° |
| 2026-04-30 18:03 | 45.63840 | 8.72862 | 746 ft | 11 kts | 304° |
| 2026-04-30 18:04 | 45.63837 | 8.72596 | 746 ft | 16 kts | 167° |
| 2026-04-30 18:05 | 45.63404 | 8.72610 | 745 ft | 13 kts | 259° |
| 2026-04-30 18:06 | 45.63327 | 8.72050 | 744 ft | 12 kts | 256° |
| 2026-04-30 18:07 | 45.63280 | 8.71708 | 746 ft | 7 kts | 257° |
| 2026-04-30 18:08 | 45.63161 | 8.71687 | 745 ft | 0 kts | 168° |
| 2026-04-30 18:09 | 45.63047 | 8.71720 | 746 ft | 12 kts | 169° |
| 2026-04-30 18:10 | 45.62908 | 8.71723 | 746 ft | 6 kts | 231° |
| 2026-04-30 18:11 | 45.62869 | 8.71646 | 746 ft | 0 kts | 233° |